sensor_id;sensor_type;location;lat;lon;timestamp;temperature;humidity
56137;DHT22;42008;52.934;5.884;2022-07-06T00:00:05;13.50;1.00
56137;DHT22;42008;52.934;5.884;2022-07-06T00:02:30;14.40;1.00
56137;DHT22;42008;52.934;5.884;2022-07-06T00:04:56;15.10;1.00
56137;DHT22;42008;52.934;5.884;2022-07-06T00:07:23;13.80;1.00
56137;DHT22;42008;52.934;5.884;2022-07-06T00:09:49;13.60;1.00
56137;DHT22;42008;52.934;5.884;2022-07-06T00:12:15;15.00;1.00
56137;DHT22;42008;52.934;5.884;2022-07-06T00:14:41;13.50;1.00
56137;DHT22;42008;52.934;5.884;2022-07-06T00:17:06;14.80;1.00
56137;DHT22;42008;52.934;5.884;2022-07-06T00:19:32;13.60;1.00
56137;DHT22;42008;52.934;5.884;2022-07-06T00:21:57;15.10;1.00
56137;DHT22;42008;52.934;5.884;2022-07-06T00:24:23;14.80;1.00
56137;DHT22;42008;52.934;5.884;2022-07-06T00:26:49;13.80;1.00
56137;DHT22;42008;52.934;5.884;2022-07-06T00:29:14;13.90;1.00
56137;DHT22;42008;52.934;5.884;2022-07-06T00:31:40;13.80;1.00
56137;DHT22;42008;52.934;5.884;2022-07-06T00:34:05;13.90;1.00
56137;DHT22;42008;52.934;5.884;2022-07-06T00:36:31;15.30;1.00
56137;DHT22;42008;52.934;5.884;2022-07-06T00:38:56;14.70;1.00
56137;DHT22;42008;52.934;5.884;2022-07-06T00:41:22;13.80;1.00
56137;DHT22;42008;52.934;5.884;2022-07-06T00:46:13;15.20;1.00
56137;DHT22;42008;52.934;5.884;2022-07-06T00:48:39;15.30;1.00
56137;DHT22;42008;52.934;5.884;2022-07-06T00:51:04;13.80;1.00
56137;DHT22;42008;52.934;5.884;2022-07-06T00:53:30;15.70;1.00
56137;DHT22;42008;52.934;5.884;2022-07-06T00:55:56;13.80;1.00
56137;DHT22;42008;52.934;5.884;2022-07-06T00:58:21;14.90;1.00
56137;DHT22;42008;52.934;5.884;2022-07-06T01:00:47;14.20;1.00
56137;DHT22;42008;52.934;5.884;2022-07-06T01:03:13;14.60;1.00
56137;DHT22;42008;52.934;5.884;2022-07-06T01:05:38;15.20;1.00
56137;DHT22;42008;52.934;5.884;2022-07-06T01:08:04;15.10;1.00
56137;DHT22;42008;52.934;5.884;2022-07-06T01:10:29;14.60;1.00
56137;DHT22;42008;52.934;5.884;2022-07-06T01:12:56;14.90;1.00
56137;DHT22;42008;52.934;5.884;2022-07-06T01:15:24;13.70;1.00
56137;DHT22;42008;52.934;5.884;2022-07-06T01:17:50;15.00;1.00
56137;DHT22;42008;52.934;5.884;2022-07-06T01:20:18;15.10;1.00
56137;DHT22;42008;52.934;5.884;2022-07-06T01:22:45;14.50;1.00
56137;DHT22;42008;52.934;5.884;2022-07-06T01:25:12;13.90;1.00
56137;DHT22;42008;52.934;5.884;2022-07-06T01:27:39;14.90;1.00
56137;DHT22;42008;52.934;5.884;2022-07-06T01:30:13;14.20;1.00
56137;DHT22;42008;52.934;5.884;2022-07-06T01:32:39;14.40;1.00
56137;DHT22;42008;52.934;5.884;2022-07-06T01:35:07;13.90;1.00
56137;DHT22;42008;52.934;5.884;2022-07-06T01:37:34;14.50;1.00
56137;DHT22;42008;52.934;5.884;2022-07-06T01:40:00;13.80;1.00
56137;DHT22;42008;52.934;5.884;2022-07-06T01:42:26;15.20;1.00
56137;DHT22;42008;52.934;5.884;2022-07-06T01:44:52;13.90;1.00
56137;DHT22;42008;52.934;5.884;2022-07-06T01:47:18;14.80;1.00
56137;DHT22;42008;52.934;5.884;2022-07-06T01:49:44;13.70;1.00
56137;DHT22;42008;52.934;5.884;2022-07-06T01:52:09;13.60;1.00
56137;DHT22;42008;52.934;5.884;2022-07-06T01:54:35;14.30;1.00
56137;DHT22;42008;52.934;5.884;2022-07-06T01:57:00;15.10;1.00
56137;DHT22;42008;52.934;5.884;2022-07-06T01:59:26;14.60;1.00
56137;DHT22;42008;52.934;5.884;2022-07-06T02:01:52;14.90;1.00
56137;DHT22;42008;52.934;5.884;2022-07-06T02:04:17;13.90;1.00
56137;DHT22;42008;52.934;5.884;2022-07-06T02:06:43;15.20;1.00
56137;DHT22;42008;52.934;5.884;2022-07-06T02:09:08;13.50;1.00
56137;DHT22;42008;52.934;5.884;2022-07-06T02:11:34;13.80;1.00
56137;DHT22;42008;52.934;5.884;2022-07-06T02:13:59;14.40;1.00
56137;DHT22;42008;52.934;5.884;2022-07-06T02:16:25;15.00;1.00
56137;DHT22;42008;52.934;5.884;2022-07-06T02:18:50;15.10;1.00
56137;DHT22;42008;52.934;5.884;2022-07-06T02:21:16;13.60;1.00
56137;DHT22;42008;52.934;5.884;2022-07-06T02:23:42;13.60;1.00
56137;DHT22;42008;52.934;5.884;2022-07-06T02:26:07;13.80;1.00
56137;DHT22;42008;52.934;5.884;2022-07-06T02:28:33;15.10;1.00
56137;DHT22;42008;52.934;5.884;2022-07-06T02:30:58;13.70;1.00
56137;DHT22;42008;52.934;5.884;2022-07-06T02:33:24;14.50;1.00
56137;DHT22;42008;52.934;5.884;2022-07-06T02:35:50;13.90;1.00
56137;DHT22;42008;52.934;5.884;2022-07-06T02:38:15;13.70;1.00
56137;DHT22;42008;52.934;5.884;2022-07-06T02:40:41;13.90;1.00
56137;DHT22;42008;52.934;5.884;2022-07-06T02:43:07;15.00;1.00
56137;DHT22;42008;52.934;5.884;2022-07-06T02:45:32;15.20;1.00
56137;DHT22;42008;52.934;5.884;2022-07-06T02:47:58;15.10;1.00
56137;DHT22;42008;52.934;5.884;2022-07-06T02:50:25;14.00;1.00
56137;DHT22;42008;52.934;5.884;2022-07-06T02:52:51;13.90;1.00
56137;DHT22;42008;52.934;5.884;2022-07-06T02:55:16;15.40;1.00
56137;DHT22;42008;52.934;5.884;2022-07-06T02:57:42;15.40;1.00
56137;DHT22;42008;52.934;5.884;2022-07-06T03:00:08;14.90;1.00
56137;DHT22;42008;52.934;5.884;2022-07-06T03:02:35;14.60;1.00
56137;DHT22;42008;52.934;5.884;2022-07-06T03:05:00;13.80;1.00
56137;DHT22;42008;52.934;5.884;2022-07-06T03:07:26;14.90;1.00
56137;DHT22;42008;52.934;5.884;2022-07-06T03:09:52;14.80;1.00
56137;DHT22;42008;52.934;5.884;2022-07-06T03:12:17;15.30;1.00
56137;DHT22;42008;52.934;5.884;2022-07-06T03:14:43;15.40;1.00
56137;DHT22;42008;52.934;5.884;2022-07-06T03:17:09;15.40;1.00
56137;DHT22;42008;52.934;5.884;2022-07-06T03:19:35;14.80;1.00
56137;DHT22;42008;52.934;5.884;2022-07-06T03:22:00;15.40;1.00
56137;DHT22;42008;52.934;5.884;2022-07-06T03:24:26;13.70;1.00
56137;DHT22;42008;52.934;5.884;2022-07-06T03:26:51;13.90;1.00
56137;DHT22;42008;52.934;5.884;2022-07-06T03:29:17;13.90;1.00
56137;DHT22;42008;52.934;5.884;2022-07-06T03:31:43;13.90;1.00
56137;DHT22;42008;52.934;5.884;2022-07-06T03:34:08;15.30;1.00
56137;DHT22;42008;52.934;5.884;2022-07-06T03:36:34;15.20;1.00
56137;DHT22;42008;52.934;5.884;2022-07-06T03:39:00;13.80;1.00
56137;DHT22;42008;52.934;5.884;2022-07-06T03:41:26;15.20;1.00
56137;DHT22;42008;52.934;5.884;2022-07-06T03:43:51;13.90;1.00
56137;DHT22;42008;52.934;5.884;2022-07-06T03:46:17;13.70;1.00
56137;DHT22;42008;52.934;5.884;2022-07-06T03:48:42;14.50;1.00
56137;DHT22;42008;52.934;5.884;2022-07-06T03:51:08;15.10;1.00
56137;DHT22;42008;52.934;5.884;2022-07-06T03:53:35;14.70;1.00
56137;DHT22;42008;52.934;5.884;2022-07-06T03:56:01;15.30;1.00
56137;DHT22;42008;52.934;5.884;2022-07-06T03:58:45;13.80;1.00
56137;DHT22;42008;52.934;5.884;2022-07-06T04:01:11;13.70;1.00
56137;DHT22;42008;52.934;5.884;2022-07-06T04:03:37;14.70;1.00
56137;DHT22;42008;52.934;5.884;2022-07-06T04:06:03;14.90;1.00
56137;DHT22;42008;52.934;5.884;2022-07-06T04:08:28;14.10;1.00
56137;DHT22;42008;52.934;5.884;2022-07-06T04:10:54;13.40;1.00
56137;DHT22;42008;52.934;5.884;2022-07-06T04:13:19;13.50;1.00
56137;DHT22;42008;52.934;5.884;2022-07-06T04:15:45;13.80;1.00
56137;DHT22;42008;52.934;5.884;2022-07-06T04:18:10;14.70;1.00
56137;DHT22;42008;52.934;5.884;2022-07-06T04:20:36;13.60;1.00
56137;DHT22;42008;52.934;5.884;2022-07-06T04:23:02;15.20;1.00
56137;DHT22;42008;52.934;5.884;2022-07-06T04:25:27;14.70;1.00
56137;DHT22;42008;52.934;5.884;2022-07-06T04:27:53;14.20;1.00
56137;DHT22;42008;52.934;5.884;2022-07-06T04:30:19;13.30;1.00
56137;DHT22;42008;52.934;5.884;2022-07-06T04:32:44;13.70;1.00
56137;DHT22;42008;52.934;5.884;2022-07-06T04:35:10;13.70;1.00
56137;DHT22;42008;52.934;5.884;2022-07-06T04:37:35;13.60;1.00
56137;DHT22;42008;52.934;5.884;2022-07-06T04:40:01;14.50;1.00
56137;DHT22;42008;52.934;5.884;2022-07-06T04:42:27;14.10;1.00
56137;DHT22;42008;52.934;5.884;2022-07-06T04:44:52;13.50;1.00
56137;DHT22;42008;52.934;5.884;2022-07-06T04:47:18;15.20;1.00
56137;DHT22;42008;52.934;5.884;2022-07-06T04:49:44;14.40;1.00
56137;DHT22;42008;52.934;5.884;2022-07-06T04:52:09;13.60;1.00
56137;DHT22;42008;52.934;5.884;2022-07-06T04:54:35;13.90;1.00
56137;DHT22;42008;52.934;5.884;2022-07-06T04:57:01;14.90;1.00
56137;DHT22;42008;52.934;5.884;2022-07-06T04:59:26;14.00;1.00
56137;DHT22;42008;52.934;5.884;2022-07-06T05:01:52;13.70;1.00
56137;DHT22;42008;52.934;5.884;2022-07-06T05:04:17;13.80;1.00
56137;DHT22;42008;52.934;5.884;2022-07-06T05:06:46;15.20;1.00
56137;DHT22;42008;52.934;5.884;2022-07-06T05:09:12;15.20;1.00
56137;DHT22;42008;52.934;5.884;2022-07-06T05:11:38;15.40;1.00
56137;DHT22;42008;52.934;5.884;2022-07-06T05:14:05;14.00;1.00
56137;DHT22;42008;52.934;5.884;2022-07-06T05:16:31;15.60;1.00
56137;DHT22;42008;52.934;5.884;2022-07-06T05:18:56;15.40;1.00
56137;DHT22;42008;52.934;5.884;2022-07-06T05:21:22;15.50;1.00
56137;DHT22;42008;52.934;5.884;2022-07-06T05:23:48;15.30;1.00
56137;DHT22;42008;52.934;5.884;2022-07-06T05:26:13;15.10;1.00
56137;DHT22;42008;52.934;5.884;2022-07-06T05:28:39;14.90;1.00
56137;DHT22;42008;52.934;5.884;2022-07-06T05:31:05;14.90;1.00
56137;DHT22;42008;52.934;5.884;2022-07-06T05:33:30;15.70;1.00
56137;DHT22;42008;52.934;5.884;2022-07-06T05:35:56;15.20;1.00
56137;DHT22;42008;52.934;5.884;2022-07-06T05:38:22;15.50;1.00
56137;DHT22;42008;52.934;5.884;2022-07-06T05:40:47;15.50;1.00
56137;DHT22;42008;52.934;5.884;2022-07-06T05:43:13;15.50;1.00
56137;DHT22;42008;52.934;5.884;2022-07-06T05:45:38;15.50;1.00
56137;DHT22;42008;52.934;5.884;2022-07-06T05:48:04;16.20;1.00
56137;DHT22;42008;52.934;5.884;2022-07-06T05:50:48;14.70;1.00
56137;DHT22;42008;52.934;5.884;2022-07-06T05:53:13;15.30;1.00
56137;DHT22;42008;52.934;5.884;2022-07-06T05:55:39;15.30;1.00
56137;DHT22;42008;52.934;5.884;2022-07-06T05:58:05;15.50;1.00
56137;DHT22;42008;52.934;5.884;2022-07-06T06:00:31;15.10;1.00
56137;DHT22;42008;52.934;5.884;2022-07-06T06:02:58;15.50;1.00
56137;DHT22;42008;52.934;5.884;2022-07-06T06:05:23;15.20;1.00
56137;DHT22;42008;52.934;5.884;2022-07-06T06:07:49;15.80;1.00
56137;DHT22;42008;52.934;5.884;2022-07-06T06:10:17;15.40;1.00
56137;DHT22;42008;52.934;5.884;2022-07-06T06:12:44;15.30;1.00
56137;DHT22;42008;52.934;5.884;2022-07-06T06:15:10;15.30;1.00
56137;DHT22;42008;52.934;5.884;2022-07-06T06:17:37;15.40;1.00
56137;DHT22;42008;52.934;5.884;2022-07-06T06:20:04;15.70;1.00
56137;DHT22;42008;52.934;5.884;2022-07-06T06:22:30;15.00;1.00
56137;DHT22;42008;52.934;5.884;2022-07-06T06:24:55;15.50;1.00
56137;DHT22;42008;52.934;5.884;2022-07-06T06:27:21;17.20;1.00
56137;DHT22;42008;52.934;5.884;2022-07-06T06:29:46;15.70;1.00
56137;DHT22;42008;52.934;5.884;2022-07-06T06:32:12;17.20;1.00
56137;DHT22;42008;52.934;5.884;2022-07-06T06:34:39;15.60;1.00
56137;DHT22;42008;52.934;5.884;2022-07-06T06:37:05;16.00;1.00
56137;DHT22;42008;52.934;5.884;2022-07-06T06:39:30;17.20;1.00
56137;DHT22;42008;52.934;5.884;2022-07-06T06:41:56;15.90;1.00
56137;DHT22;42008;52.934;5.884;2022-07-06T06:44:22;17.80;1.00
56137;DHT22;42008;52.934;5.884;2022-07-06T06:46:51;17.70;1.00
56137;DHT22;42008;52.934;5.884;2022-07-06T06:49:17;17.80;1.00
56137;DHT22;42008;52.934;5.884;2022-07-06T06:51:43;16.20;1.00
56137;DHT22;42008;52.934;5.884;2022-07-06T06:54:09;16.40;1.00
56137;DHT22;42008;52.934;5.884;2022-07-06T06:56:34;17.90;1.00
56137;DHT22;42008;52.934;5.884;2022-07-06T06:59:00;18.60;1.00
56137;DHT22;42008;52.934;5.884;2022-07-06T07:01:27;18.00;1.00
56137;DHT22;42008;52.934;5.884;2022-07-06T07:03:53;16.30;1.00
56137;DHT22;42008;52.934;5.884;2022-07-06T07:06:20;17.50;1.00
56137;DHT22;42008;52.934;5.884;2022-07-06T07:08:46;17.20;1.00
56137;DHT22;42008;52.934;5.884;2022-07-06T07:11:12;16.10;1.00
56137;DHT22;42008;52.934;5.884;2022-07-06T07:13:38;15.80;1.00
56137;DHT22;42008;52.934;5.884;2022-07-06T07:16:04;16.60;1.00
56137;DHT22;42008;52.934;5.884;2022-07-06T07:18:29;15.00;1.00
56137;DHT22;42008;52.934;5.884;2022-07-06T07:20:55;15.70;1.00
56137;DHT22;42008;52.934;5.884;2022-07-06T07:23:20;16.80;1.00
56137;DHT22;42008;52.934;5.884;2022-07-06T07:25:46;15.60;1.00
56137;DHT22;42008;52.934;5.884;2022-07-06T07:28:11;15.60;1.00
56137;DHT22;42008;52.934;5.884;2022-07-06T07:30:37;17.20;1.00
56137;DHT22;42008;52.934;5.884;2022-07-06T07:33:02;15.80;1.00
56137;DHT22;42008;52.934;5.884;2022-07-06T07:35:28;17.30;1.00
56137;DHT22;42008;52.934;5.884;2022-07-06T07:37:54;16.60;1.00
56137;DHT22;42008;52.934;5.884;2022-07-06T07:40:19;16.20;1.00
56137;DHT22;42008;52.934;5.884;2022-07-06T07:42:45;17.50;1.00
56137;DHT22;42008;52.934;5.884;2022-07-06T07:45:11;17.70;1.00
56137;DHT22;42008;52.934;5.884;2022-07-06T07:47:38;18.10;1.00
56137;DHT22;42008;52.934;5.884;2022-07-06T07:50:04;17.60;1.00
56137;DHT22;42008;52.934;5.884;2022-07-06T07:52:29;17.10;1.00
56137;DHT22;42008;52.934;5.884;2022-07-06T07:54:55;17.60;1.00
56137;DHT22;42008;52.934;5.884;2022-07-06T07:57:21;18.30;1.00
56137;DHT22;42008;52.934;5.884;2022-07-06T07:59:46;18.00;1.00
56137;DHT22;42008;52.934;5.884;2022-07-06T08:02:12;18.30;1.00
56137;DHT22;42008;52.934;5.884;2022-07-06T08:04:37;18.10;1.00
56137;DHT22;42008;52.934;5.884;2022-07-06T08:07:03;18.10;1.00
56137;DHT22;42008;52.934;5.884;2022-07-06T08:09:28;17.60;1.00
56137;DHT22;42008;52.934;5.884;2022-07-06T08:11:54;17.80;1.00
56137;DHT22;42008;52.934;5.884;2022-07-06T08:14:20;17.70;1.00
56137;DHT22;42008;52.934;5.884;2022-07-06T08:16:45;17.80;1.00
56137;DHT22;42008;52.934;5.884;2022-07-06T08:19:11;18.00;1.00
56137;DHT22;42008;52.934;5.884;2022-07-06T08:21:40;17.60;1.00
56137;DHT22;42008;52.934;5.884;2022-07-06T08:24:06;16.10;1.00
56137;DHT22;42008;52.934;5.884;2022-07-06T08:26:32;17.10;1.00
56137;DHT22;42008;52.934;5.884;2022-07-06T08:28:58;17.30;1.00
56137;DHT22;42008;52.934;5.884;2022-07-06T08:31:24;17.70;1.00
56137;DHT22;42008;52.934;5.884;2022-07-06T08:33:50;18.20;1.00
56137;DHT22;42008;52.934;5.884;2022-07-06T08:36:18;18.10;1.00
56137;DHT22;42008;52.934;5.884;2022-07-06T08:38:44;18.00;1.00
56137;DHT22;42008;52.934;5.884;2022-07-06T08:41:10;19.00;1.00
56137;DHT22;42008;52.934;5.884;2022-07-06T08:43:36;17.70;1.00
56137;DHT22;42008;52.934;5.884;2022-07-06T08:46:02;16.10;1.00
56137;DHT22;42008;52.934;5.884;2022-07-06T08:48:32;17.90;1.00
56137;DHT22;42008;52.934;5.884;2022-07-06T08:51:00;16.20;1.00
56137;DHT22;42008;52.934;5.884;2022-07-06T08:53:26;17.40;1.00
56137;DHT22;42008;52.934;5.884;2022-07-06T08:55:52;16.40;1.00
56137;DHT22;42008;52.934;5.884;2022-07-06T08:58:18;17.60;1.00
56137;DHT22;42008;52.934;5.884;2022-07-06T09:00:44;18.20;1.00
56137;DHT22;42008;52.934;5.884;2022-07-06T09:03:12;19.80;1.00
56137;DHT22;42008;52.934;5.884;2022-07-06T09:05:40;18.60;1.00
56137;DHT22;42008;52.934;5.884;2022-07-06T09:08:05;17.80;1.00
56137;DHT22;42008;52.934;5.884;2022-07-06T09:10:31;18.80;1.00
56137;DHT22;42008;52.934;5.884;2022-07-06T09:13:07;18.70;1.00
56137;DHT22;42008;52.934;5.884;2022-07-06T09:15:35;17.80;1.00
56137;DHT22;42008;52.934;5.884;2022-07-06T09:18:01;18.70;1.00
56137;DHT22;42008;52.934;5.884;2022-07-06T09:20:28;18.30;1.00
56137;DHT22;42008;52.934;5.884;2022-07-06T09:22:59;17.90;1.00
56137;DHT22;42008;52.934;5.884;2022-07-06T09:25:26;17.90;1.00
56137;DHT22;42008;52.934;5.884;2022-07-06T09:27:52;17.50;1.00
56137;DHT22;42008;52.934;5.884;2022-07-06T09:30:21;17.90;1.00
56137;DHT22;42008;52.934;5.884;2022-07-06T09:32:50;18.00;1.00
56137;DHT22;42008;52.934;5.884;2022-07-06T09:35:26;17.80;1.00
56137;DHT22;42008;52.934;5.884;2022-07-06T09:38:12;17.30;1.00
56137;DHT22;42008;52.934;5.884;2022-07-06T09:40:40;17.50;1.00
56137;DHT22;42008;52.934;5.884;2022-07-06T09:45:44;20.00;1.00
56137;DHT22;42008;52.934;5.884;2022-07-06T09:48:15;20.00;1.00
56137;DHT22;42008;52.934;5.884;2022-07-06T09:50:46;19.20;1.00
56137;DHT22;42008;52.934;5.884;2022-07-06T09:53:13;18.60;1.00
56137;DHT22;42008;52.934;5.884;2022-07-06T09:55:46;18.20;1.00
56137;DHT22;42008;52.934;5.884;2022-07-06T09:58:13;18.60;1.00
56137;DHT22;42008;52.934;5.884;2022-07-06T10:00:38;20.20;1.00
56137;DHT22;42008;52.934;5.884;2022-07-06T10:03:04;19.90;1.00
56137;DHT22;42008;52.934;5.884;2022-07-06T10:05:31;18.50;1.00
56137;DHT22;42008;52.934;5.884;2022-07-06T10:08:00;18.80;1.00
56137;DHT22;42008;52.934;5.884;2022-07-06T10:10:28;19.10;1.00
56137;DHT22;42008;52.934;5.884;2022-07-06T10:12:57;19.40;1.00
56137;DHT22;42008;52.934;5.884;2022-07-06T10:15:26;19.80;1.00
56137;DHT22;42008;52.934;5.884;2022-07-06T10:17:53;18.60;1.00
56137;DHT22;42008;52.934;5.884;2022-07-06T10:20:19;20.00;1.00
56137;DHT22;42008;52.934;5.884;2022-07-06T10:22:49;19.70;1.00
56137;DHT22;42008;52.934;5.884;2022-07-06T10:25:19;19.30;1.00
56137;DHT22;42008;52.934;5.884;2022-07-06T10:27:46;19.30;1.00
56137;DHT22;42008;52.934;5.884;2022-07-06T10:30:12;18.70;1.00
56137;DHT22;42008;52.934;5.884;2022-07-06T10:32:39;19.60;1.00
56137;DHT22;42008;52.934;5.884;2022-07-06T10:35:06;20.60;1.00
56137;DHT22;42008;52.934;5.884;2022-07-06T10:37:32;19.60;1.00
56137;DHT22;42008;52.934;5.884;2022-07-06T10:39:59;20.10;1.00
56137;DHT22;42008;52.934;5.884;2022-07-06T10:42:50;19.10;1.00
56137;DHT22;42008;52.934;5.884;2022-07-06T10:50:38;20.60;1.00
56137;DHT22;42008;52.934;5.884;2022-07-06T10:53:10;20.20;1.00
56137;DHT22;42008;52.934;5.884;2022-07-06T10:55:38;20.30;1.00
56137;DHT22;42008;52.934;5.884;2022-07-06T10:58:04;20.70;1.00
56137;DHT22;42008;52.934;5.884;2022-07-06T11:00:53;20.80;1.00
56137;DHT22;42008;52.934;5.884;2022-07-06T11:08:51;20.30;99.90
56137;DHT22;42008;52.934;5.884;2022-07-06T11:11:19;21.50;99.90
56137;DHT22;42008;52.934;5.884;2022-07-06T11:14:08;20.70;99.90
56137;DHT22;42008;52.934;5.884;2022-07-06T11:16:37;19.90;99.90
56137;DHT22;42008;52.934;5.884;2022-07-06T11:19:04;20.50;1.00
56137;DHT22;42008;52.934;5.884;2022-07-06T11:21:43;20.20;1.00
56137;DHT22;42008;52.934;5.884;2022-07-06T11:24:24;20.50;1.00
56137;DHT22;42008;52.934;5.884;2022-07-06T11:26:51;20.50;99.90
56137;DHT22;42008;52.934;5.884;2022-07-06T11:29:19;20.40;99.90
56137;DHT22;42008;52.934;5.884;2022-07-06T11:31:50;19.20;1.00
56137;DHT22;42008;52.934;5.884;2022-07-06T11:34:30;20.60;99.90
56137;DHT22;42008;52.934;5.884;2022-07-06T11:37:04;19.20;1.00
56137;DHT22;42008;52.934;5.884;2022-07-06T11:39:31;20.00;1.00
56137;DHT22;42008;52.934;5.884;2022-07-06T11:41:58;20.80;1.00
56137;DHT22;42008;52.934;5.884;2022-07-06T11:44:24;20.80;99.90
56137;DHT22;42008;52.934;5.884;2022-07-06T11:46:50;20.60;1.00
56137;DHT22;42008;52.934;5.884;2022-07-06T11:49:16;22.50;99.90
56137;DHT22;42008;52.934;5.884;2022-07-06T11:51:42;21.20;99.90
56137;DHT22;42008;52.934;5.884;2022-07-06T11:54:13;20.80;99.90
56137;DHT22;42008;52.934;5.884;2022-07-06T11:56:46;20.60;99.90
56137;DHT22;42008;52.934;5.884;2022-07-06T11:59:12;20.40;99.90
56137;DHT22;42008;52.934;5.884;2022-07-06T12:01:39;20.90;1.00
56137;DHT22;42008;52.934;5.884;2022-07-06T12:04:09;20.30;99.90
56137;DHT22;42008;52.934;5.884;2022-07-06T12:06:35;20.70;99.90
56137;DHT22;42008;52.934;5.884;2022-07-06T12:09:02;20.90;99.90
56137;DHT22;42008;52.934;5.884;2022-07-06T12:11:30;20.70;99.90
56137;DHT22;42008;52.934;5.884;2022-07-06T12:13:58;20.70;99.90
56137;DHT22;42008;52.934;5.884;2022-07-06T12:16:31;20.50;99.90
56137;DHT22;42008;52.934;5.884;2022-07-06T12:18:59;20.70;99.90
56137;DHT22;42008;52.934;5.884;2022-07-06T12:21:26;20.40;1.00
56137;DHT22;42008;52.934;5.884;2022-07-06T12:23:52;21.80;99.90
56137;DHT22;42008;52.934;5.884;2022-07-06T12:26:21;21.50;99.90
56137;DHT22;42008;52.934;5.884;2022-07-06T12:29:02;23.10;99.90
56137;DHT22;42008;52.934;5.884;2022-07-06T12:31:37;22.30;99.90
56137;DHT22;42008;52.934;5.884;2022-07-06T12:34:03;21.40;99.90
56137;DHT22;42008;52.934;5.884;2022-07-06T12:36:29;21.40;99.90
56137;DHT22;42008;52.934;5.884;2022-07-06T12:38:56;21.30;99.90
56137;DHT22;42008;52.934;5.884;2022-07-06T12:41:29;21.00;99.90
56137;DHT22;42008;52.934;5.884;2022-07-06T12:44:09;22.10;99.90
56137;DHT22;42008;52.934;5.884;2022-07-06T12:46:39;22.10;99.90
56137;DHT22;42008;52.934;5.884;2022-07-06T12:49:17;21.40;99.90
56137;DHT22;42008;52.934;5.884;2022-07-06T12:51:53;21.70;99.90
56137;DHT22;42008;52.934;5.884;2022-07-06T12:54:19;20.20;99.90
56137;DHT22;42008;52.934;5.884;2022-07-06T12:57:00;20.00;99.90
56137;DHT22;42008;52.934;5.884;2022-07-06T12:59:26;19.90;99.90
56137;DHT22;42008;52.934;5.884;2022-07-06T13:01:53;20.40;99.90
56137;DHT22;42008;52.934;5.884;2022-07-06T13:04:24;20.50;99.90
56137;DHT22;42008;52.934;5.884;2022-07-06T13:06:50;20.80;99.90
56137;DHT22;42008;52.934;5.884;2022-07-06T13:09:16;20.10;99.90
56137;DHT22;42008;52.934;5.884;2022-07-06T13:11:43;20.40;99.90
56137;DHT22;42008;52.934;5.884;2022-07-06T13:14:08;20.00;99.90
56137;DHT22;42008;52.934;5.884;2022-07-06T13:16:35;20.40;99.90
56137;DHT22;42008;52.934;5.884;2022-07-06T13:19:01;20.10;99.90
56137;DHT22;42008;52.934;5.884;2022-07-06T13:21:27;20.20;99.90
56137;DHT22;42008;52.934;5.884;2022-07-06T13:23:53;19.90;99.90
56137;DHT22;42008;52.934;5.884;2022-07-06T13:26:20;18.80;99.90
56137;DHT22;42008;52.934;5.884;2022-07-06T13:28:46;20.20;99.90
56137;DHT22;42008;52.934;5.884;2022-07-06T13:31:11;18.60;99.90
56137;DHT22;42008;52.934;5.884;2022-07-06T13:33:37;18.80;99.90
56137;DHT22;42008;52.934;5.884;2022-07-06T13:36:03;20.10;99.90
56137;DHT22;42008;52.934;5.884;2022-07-06T13:38:29;19.30;99.90
56137;DHT22;42008;52.934;5.884;2022-07-06T13:40:55;19.90;99.90
56137;DHT22;42008;52.934;5.884;2022-07-06T13:43:20;19.80;99.90
56137;DHT22;42008;52.934;5.884;2022-07-06T13:45:46;20.20;99.90
56137;DHT22;42008;52.934;5.884;2022-07-06T13:48:12;19.60;99.90
56137;DHT22;42008;52.934;5.884;2022-07-06T13:50:38;20.20;99.90
56137;DHT22;42008;52.934;5.884;2022-07-06T13:53:04;20.10;99.90
56137;DHT22;42008;52.934;5.884;2022-07-06T13:55:30;19.90;99.90
56137;DHT22;42008;52.934;5.884;2022-07-06T13:57:56;18.40;99.90
56137;DHT22;42008;52.934;5.884;2022-07-06T14:00:22;18.40;1.00
56137;DHT22;42008;52.934;5.884;2022-07-06T14:02:48;19.10;1.00
56137;DHT22;42008;52.934;5.884;2022-07-06T14:05:13;20.00;1.00
56137;DHT22;42008;52.934;5.884;2022-07-06T14:07:39;18.30;1.00
56137;DHT22;42008;52.934;5.884;2022-07-06T14:10:05;18.20;1.00
56137;DHT22;42008;52.934;5.884;2022-07-06T14:12:30;18.70;1.00
56137;DHT22;42008;52.934;5.884;2022-07-06T14:14:56;17.20;1.00
56137;DHT22;42008;52.934;5.884;2022-07-06T14:17:22;18.20;1.00
56137;DHT22;42008;52.934;5.884;2022-07-06T14:19:51;19.10;1.00
56137;DHT22;42008;52.934;5.884;2022-07-06T14:22:22;17.90;1.00
56137;DHT22;42008;52.934;5.884;2022-07-06T14:24:48;19.40;1.00
56137;DHT22;42008;52.934;5.884;2022-07-06T14:27:13;18.00;1.00
56137;DHT22;42008;52.934;5.884;2022-07-06T14:29:39;18.30;1.00
56137;DHT22;42008;52.934;5.884;2022-07-06T14:32:05;19.90;1.00
56137;DHT22;42008;52.934;5.884;2022-07-06T14:34:30;19.30;1.00
56137;DHT22;42008;52.934;5.884;2022-07-06T14:36:56;20.20;1.00
56137;DHT22;42008;52.934;5.884;2022-07-06T14:39:21;18.50;1.00
56137;DHT22;42008;52.934;5.884;2022-07-06T14:41:47;18.00;1.00
56137;DHT22;42008;52.934;5.884;2022-07-06T14:44:12;19.50;1.00
56137;DHT22;42008;52.934;5.884;2022-07-06T14:46:38;17.80;1.00
56137;DHT22;42008;52.934;5.884;2022-07-06T14:49:04;17.90;1.00
56137;DHT22;42008;52.934;5.884;2022-07-06T14:51:30;17.70;1.00
56137;DHT22;42008;52.934;5.884;2022-07-06T14:53:55;17.90;1.00
56137;DHT22;42008;52.934;5.884;2022-07-06T14:56:21;16.20;1.00
56137;DHT22;42008;52.934;5.884;2022-07-06T14:58:46;17.70;1.00
56137;DHT22;42008;52.934;5.884;2022-07-06T15:01:12;17.40;1.00
56137;DHT22;42008;52.934;5.884;2022-07-06T15:03:37;16.40;1.00
56137;DHT22;42008;52.934;5.884;2022-07-06T15:06:03;15.40;1.00
56137;DHT22;42008;52.934;5.884;2022-07-06T15:08:29;15.50;1.00
56137;DHT22;42008;52.934;5.884;2022-07-06T15:10:55;15.40;1.00
56137;DHT22;42008;52.934;5.884;2022-07-06T15:13:20;17.00;1.00
56137;DHT22;42008;52.934;5.884;2022-07-06T15:15:46;16.90;1.00
56137;DHT22;42008;52.934;5.884;2022-07-06T15:18:12;17.20;1.00
56137;DHT22;42008;52.934;5.884;2022-07-06T15:20:37;17.00;1.00
56137;DHT22;42008;52.934;5.884;2022-07-06T15:23:03;17.40;1.00
56137;DHT22;42008;52.934;5.884;2022-07-06T15:25:29;15.80;1.00
56137;DHT22;42008;52.934;5.884;2022-07-06T15:27:54;17.30;1.00
56137;DHT22;42008;52.934;5.884;2022-07-06T15:30:20;17.10;1.00
56137;DHT22;42008;52.934;5.884;2022-07-06T15:32:46;17.50;1.00
56137;DHT22;42008;52.934;5.884;2022-07-06T15:35:11;17.50;1.00
56137;DHT22;42008;52.934;5.884;2022-07-06T15:37:38;17.80;1.00
56137;DHT22;42008;52.934;5.884;2022-07-06T15:40:04;17.70;1.00
56137;DHT22;42008;52.934;5.884;2022-07-06T15:42:31;17.00;1.00
56137;DHT22;42008;52.934;5.884;2022-07-06T15:44:57;17.30;1.00
56137;DHT22;42008;52.934;5.884;2022-07-06T15:47:22;16.20;1.00
56137;DHT22;42008;52.934;5.884;2022-07-06T15:49:49;17.10;1.00
56137;DHT22;42008;52.934;5.884;2022-07-06T15:52:15;16.70;1.00
56137;DHT22;42008;52.934;5.884;2022-07-06T15:54:42;17.20;1.00
56137;DHT22;42008;52.934;5.884;2022-07-06T15:57:08;17.50;1.00